sensor_id;sensor_type;location;lat;lon;timestamp;P1;durP1;ratioP1;P2;durP2;ratioP2
78648;SDS011;67962;47.310;9.642;2023-02-18T10:04:28;2.92;;;1.20;;
78648;SDS011;67962;47.310;9.642;2023-02-18T10:06:58;3.55;;;1.20;;
78648;SDS011;67962;47.310;9.642;2023-02-18T10:09:28;4.68;;;1.15;;
78648;SDS011;67962;47.310;9.642;2023-02-18T10:12:06;4.32;;;1.30;;
78648;SDS011;67962;47.310;9.642;2023-02-18T10:14:35;5.22;;;1.42;;
78648;SDS011;67962;47.310;9.642;2023-02-18T10:17:01;2.40;;;1.63;;
78648;SDS011;67962;47.310;9.642;2023-02-18T10:21:59;3.58;;;1.33;;
78648;SDS011;67962;47.310;9.642;2023-02-18T10:26:57;6.57;;;1.70;;
78648;SDS011;67962;47.310;9.642;2023-02-18T10:29:25;2.75;;;1.30;;
78648;SDS011;67962;47.310;9.642;2023-02-18T10:31:56;4.57;;;1.20;;
78648;SDS011;67962;47.310;9.642;2023-02-18T10:42:51;2.50;;;1.13;;
78648;SDS011;67962;47.310;9.642;2023-02-18T10:45:53;1.85;;;1.08;;
78648;SDS011;67962;47.310;9.642;2023-02-18T10:51:31;1.95;;;1.20;;
78648;SDS011;67962;47.310;9.642;2023-02-18T10:53:59;4.15;;;1.00;;
78648;SDS011;67962;47.310;9.642;2023-02-18T10:56:33;3.25;;;1.15;;
78648;SDS011;67962;47.310;9.642;2023-02-18T11:01:33;1.63;;;1.00;;
78648;SDS011;67962;47.310;9.642;2023-02-18T11:04:04;6.68;;;1.10;;
78648;SDS011;67962;47.310;9.642;2023-02-18T11:06:40;3.95;;;1.20;;
78648;SDS011;67962;47.310;9.642;2023-02-18T11:09:19;2.15;;;1.10;;
78648;SDS011;67962;47.310;9.642;2023-02-18T11:12:01;3.67;;;1.20;;
78648;SDS011;67962;47.310;9.642;2023-02-18T11:14:39;1.92;;;1.02;;
78648;SDS011;67962;47.310;9.642;2023-02-18T11:17:09;2.35;;;1.10;;
78648;SDS011;67962;47.310;9.642;2023-02-18T11:19:57;5.55;;;1.23;;
78648;SDS011;67962;47.310;9.642;2023-02-18T11:22:34;2.97;;;1.33;;
78648;SDS011;67962;47.310;9.642;2023-02-18T11:25:17;2.05;;;1.10;;
78648;SDS011;67962;47.310;9.642;2023-02-18T11:27:47;2.53;;;1.15;;
78648;SDS011;67962;47.310;9.642;2023-02-18T11:35:49;2.15;;;1.48;;
78648;SDS011;67962;47.310;9.642;2023-02-18T11:41:21;4.80;;;1.60;;
78648;SDS011;67962;47.310;9.642;2023-02-18T11:43:54;3.17;;;1.27;;
78648;SDS011;67962;47.310;9.642;2023-02-18T11:46:22;1.88;;;1.30;;
78648;SDS011;67962;47.310;9.642;2023-02-18T11:48:49;3.97;;;1.30;;
78648;SDS011;67962;47.310;9.642;2023-02-18T11:51:17;1.80;;;1.15;;
78648;SDS011;67962;47.310;9.642;2023-02-18T11:56:43;2.95;;;1.20;;
78648;SDS011;67962;47.310;9.642;2023-02-18T11:59:22;3.80;;;1.35;;
78648;SDS011;67962;47.310;9.642;2023-02-18T12:01:53;5.90;;;1.40;;
78648;SDS011;67962;47.310;9.642;2023-02-18T12:04:27;4.68;;;1.55;;
78648;SDS011;67962;47.310;9.642;2023-02-18T12:09:36;3.47;;;1.20;;
78648;SDS011;67962;47.310;9.642;2023-02-18T12:12:17;3.67;;;1.42;;
78648;SDS011;67962;47.310;9.642;2023-02-18T12:14:49;3.08;;;1.60;;
78648;SDS011;67962;47.310;9.642;2023-02-18T12:22:42;4.18;;;1.50;;
78648;SDS011;67962;47.310;9.642;2023-02-18T12:34:05;6.53;;;1.48;;
78648;SDS011;67962;47.310;9.642;2023-02-18T12:36:44;4.18;;;1.63;;
78648;SDS011;67962;47.310;9.642;2023-02-18T12:42:22;3.28;;;1.33;;
78648;SDS011;67962;47.310;9.642;2023-02-18T12:45:03;3.30;;;1.30;;
78648;SDS011;67962;47.310;9.642;2023-02-18T12:53:33;2.97;;;1.27;;
78648;SDS011;67962;47.310;9.642;2023-02-18T13:01:45;2.70;;;1.90;;
78648;SDS011;67962;47.310;9.642;2023-02-18T13:07:19;4.78;;;1.40;;
78648;SDS011;67962;47.310;9.642;2023-02-18T13:09:55;2.80;;;1.38;;
78648;SDS011;67962;47.310;9.642;2023-02-18T13:12:38;5.60;;;1.42;;
78648;SDS011;67962;47.310;9.642;2023-02-18T13:18:11;3.70;;;1.25;;
78648;SDS011;67962;47.310;9.642;2023-02-18T13:20:44;3.13;;;1.17;;
78648;SDS011;67962;47.310;9.642;2023-02-18T13:23:25;1.75;;;1.20;;
78648;SDS011;67962;47.310;9.642;2023-02-18T13:25:58;3.03;;;1.67;;
78648;SDS011;67962;47.310;9.642;2023-02-18T13:39:15;5.72;;;1.60;;
78648;SDS011;67962;47.310;9.642;2023-02-18T13:41:46;3.67;;;1.70;;
78648;SDS011;67962;47.310;9.642;2023-02-18T13:46:49;8.43;;;1.83;;
78648;SDS011;67962;47.310;9.642;2023-02-18T13:49:41;2.80;;;1.92;;
78648;SDS011;67962;47.310;9.642;2023-02-18T13:52:14;3.25;;;1.52;;
78648;SDS011;67962;47.310;9.642;2023-02-18T13:54:44;4.93;;;1.80;;
78648;SDS011;67962;47.310;9.642;2023-02-18T13:57:18;5.80;;;1.80;;
78648;SDS011;67962;47.310;9.642;2023-02-18T13:59:50;2.78;;;1.80;;
78648;SDS011;67962;47.310;9.642;2023-02-18T14:02:30;2.85;;;1.58;;
78648;SDS011;67962;47.310;9.642;2023-02-18T14:17:49;4.50;;;1.50;;
78648;SDS011;67962;47.310;9.642;2023-02-18T14:22:50;4.60;;;1.38;;
78648;SDS011;67962;47.310;9.642;2023-02-18T14:27:46;1.50;;;1.23;;
78648;SDS011;67962;47.310;9.642;2023-02-18T14:30:23;2.15;;;1.30;;
78648;SDS011;67962;47.310;9.642;2023-02-18T14:32:55;1.98;;;1.40;;
78648;SDS011;67962;47.310;9.642;2023-02-18T14:35:34;1.90;;;1.50;;
78648;SDS011;67962;47.310;9.642;2023-02-18T14:38:21;3.03;;;1.50;;
78648;SDS011;67962;47.310;9.642;2023-02-18T14:51:22;10.63;;;3.30;;
78648;SDS011;67962;47.310;9.642;2023-02-18T14:53:49;9.15;;;3.28;;
78648;SDS011;67962;47.310;9.642;2023-02-18T14:56:17;7.25;;;2.75;;
78648;SDS011;67962;47.310;9.642;2023-02-18T14:58:51;5.97;;;3.30;;
78648;SDS011;67962;47.310;9.642;2023-02-18T15:01:26;5.53;;;2.70;;
78648;SDS011;67962;47.310;9.642;2023-02-18T15:03:56;4.15;;;2.30;;
78648;SDS011;67962;47.310;9.642;2023-02-18T15:11:59;6.15;;;3.25;;
78648;SDS011;67962;47.310;9.642;2023-02-18T15:14:31;5.85;;;3.80;;
78648;SDS011;67962;47.310;9.642;2023-02-18T15:17:07;11.65;;;4.60;;
78648;SDS011;67962;47.310;9.642;2023-02-18T15:19:51;11.00;;;2.58;;
78648;SDS011;67962;47.310;9.642;2023-02-18T15:22:22;7.55;;;3.85;;
78648;SDS011;67962;47.310;9.642;2023-02-18T15:24:54;13.27;;;4.85;;
78648;SDS011;67962;47.310;9.642;2023-02-18T15:27:22;7.40;;;3.75;;
78648;SDS011;67962;47.310;9.642;2023-02-18T15:29:57;7.20;;;3.75;;
78648;SDS011;67962;47.310;9.642;2023-02-18T15:32:30;5.53;;;2.80;;
78648;SDS011;67962;47.310;9.642;2023-02-18T15:34:58;5.57;;;2.55;;
78648;SDS011;67962;47.310;9.642;2023-02-18T15:37:26;7.60;;;2.40;;
78648;SDS011;67962;47.310;9.642;2023-02-18T15:39:54;5.82;;;1.92;;
78648;SDS011;67962;47.310;9.642;2023-02-18T15:45:37;3.88;;;1.63;;
78648;SDS011;67962;47.310;9.642;2023-02-18T15:47:48;4.03;;;1.75;;
78648;SDS011;67962;47.310;9.642;2023-02-18T15:50:26;2.92;;;1.70;;
78648;SDS011;67962;47.310;9.642;2023-02-18T15:52:58;5.43;;;2.30;;
78648;SDS011;67962;47.310;9.642;2023-02-18T15:55:35;3.83;;;1.90;;
78648;SDS011;67962;47.310;9.642;2023-02-18T15:58:04;3.90;;;1.70;;
78648;SDS011;67962;47.310;9.642;2023-02-18T16:00:56;4.63;;;1.60;;
78648;SDS011;67962;47.310;9.642;2023-02-18T16:03:31;5.25;;;1.30;;
78648;SDS011;67962;47.310;9.642;2023-02-18T16:06:21;4.93;;;1.40;;
78648;SDS011;67962;47.310;9.642;2023-02-18T16:09:11;12.60;;;2.50;;
78648;SDS011;67962;47.310;9.642;2023-02-18T16:11:56;8.82;;;1.58;;
78648;SDS011;67962;47.310;9.642;2023-02-18T16:22:24;4.10;;;1.70;;
78648;SDS011;67962;47.310;9.642;2023-02-18T16:25:11;2.53;;;1.52;;
78648;SDS011;67962;47.310;9.642;2023-02-18T16:28:04;4.85;;;1.35;;
78648;SDS011;67962;47.310;9.642;2023-02-18T16:30:46;9.48;;;1.50;;
78648;SDS011;67962;47.310;9.642;2023-02-18T16:33:12;6.15;;;1.98;;
78648;SDS011;67962;47.310;9.642;2023-02-18T16:35:38;4.85;;;1.60;;
78648;SDS011;67962;47.310;9.642;2023-02-18T16:38:06;3.83;;;1.50;;
78648;SDS011;67962;47.310;9.642;2023-02-18T16:40:39;7.85;;;1.40;;
78648;SDS011;67962;47.310;9.642;2023-02-18T16:43:16;3.70;;;1.58;;
78648;SDS011;67962;47.310;9.642;2023-02-18T16:45:50;6.38;;;1.38;;
78648;SDS011;67962;47.310;9.642;2023-02-18T16:48:39;3.80;;;1.65;;
78648;SDS011;67962;47.310;9.642;2023-02-18T16:51:14;4.47;;;1.80;;
78648;SDS011;67962;47.310;9.642;2023-02-18T16:53:48;8.57;;;1.85;;
78648;SDS011;67962;47.310;9.642;2023-02-18T16:56:34;5.07;;;1.77;;
78648;SDS011;67962;47.310;9.642;2023-02-18T16:59:00;4.07;;;1.77;;
78648;SDS011;67962;47.310;9.642;2023-02-18T17:01:27;4.22;;;1.90;;
78648;SDS011;67962;47.310;9.642;2023-02-18T17:03:56;5.07;;;2.10;;
78648;SDS011;67962;47.310;9.642;2023-02-18T17:06:23;6.35;;;1.90;;
78648;SDS011;67962;47.310;9.642;2023-02-18T17:08:49;4.25;;;2.28;;
78648;SDS011;67962;47.310;9.642;2023-02-18T17:11:29;5.72;;;2.17;;
78648;SDS011;67962;47.310;9.642;2023-02-18T17:13:57;11.50;;;2.67;;
78648;SDS011;67962;47.310;9.642;2023-02-18T17:16:24;7.75;;;2.30;;
78648;SDS011;67962;47.310;9.642;2023-02-18T17:18:51;7.72;;;3.15;;
78648;SDS011;67962;47.310;9.642;2023-02-18T17:21:18;10.63;;;3.17;;
78648;SDS011;67962;47.310;9.642;2023-02-18T17:23:46;7.47;;;2.50;;
78648;SDS011;67962;47.310;9.642;2023-02-18T17:26:15;8.73;;;2.70;;
78648;SDS011;67962;47.310;9.642;2023-02-18T17:28:48;7.30;;;2.70;;
78648;SDS011;67962;47.310;9.642;2023-02-18T17:31:17;6.65;;;2.75;;
78648;SDS011;67962;47.310;9.642;2023-02-18T17:33:59;10.35;;;4.10;;
78648;SDS011;67962;47.310;9.642;2023-02-18T17:36:32;21.48;;;6.90;;
78648;SDS011;67962;47.310;9.642;2023-02-18T17:38:58;17.77;;;6.22;;
78648;SDS011;67962;47.310;9.642;2023-02-18T17:41:25;11.57;;;6.00;;
78648;SDS011;67962;47.310;9.642;2023-02-18T17:43:51;16.70;;;6.00;;
78648;SDS011;67962;47.310;9.642;2023-02-18T17:46:17;21.80;;;6.88;;
78648;SDS011;67962;47.310;9.642;2023-02-18T17:48:44;13.18;;;5.70;;
78648;SDS011;67962;47.310;9.642;2023-02-18T17:51:26;11.10;;;4.68;;
78648;SDS011;67962;47.310;9.642;2023-02-18T17:53:55;11.90;;;4.63;;
78648;SDS011;67962;47.310;9.642;2023-02-18T17:56:22;10.00;;;4.28;;
78648;SDS011;67962;47.310;9.642;2023-02-18T17:58:48;9.70;;;4.20;;
78648;SDS011;67962;47.310;9.642;2023-02-18T18:01:14;9.93;;;4.18;;
78648;SDS011;67962;47.310;9.642;2023-02-18T18:03:41;6.55;;;3.00;;
78648;SDS011;67962;47.310;9.642;2023-02-18T18:06:13;6.55;;;3.33;;
78648;SDS011;67962;47.310;9.642;2023-02-18T18:08:41;9.30;;;3.22;;
78648;SDS011;67962;47.310;9.642;2023-02-18T18:11:08;8.40;;;3.60;;
78648;SDS011;67962;47.310;9.642;2023-02-18T18:13:39;6.07;;;3.65;;
78648;SDS011;67962;47.310;9.642;2023-02-18T18:16:05;10.27;;;3.60;;
78648;SDS011;67962;47.310;9.642;2023-02-18T18:18:33;9.32;;;3.22;;
78648;SDS011;67962;47.310;9.642;2023-02-18T18:21:00;6.30;;;2.90;;
78648;SDS011;67962;47.310;9.642;2023-02-18T18:23:28;7.85;;;2.90;;
78648;SDS011;67962;47.310;9.642;2023-02-18T18:25:58;8.52;;;4.40;;
78648;SDS011;67962;47.310;9.642;2023-02-18T18:28:26;7.28;;;4.00;;
78648;SDS011;67962;47.310;9.642;2023-02-18T18:30:54;7.00;;;3.50;;
78648;SDS011;67962;47.310;9.642;2023-02-18T18:33:22;9.50;;;3.90;;
78648;SDS011;67962;47.310;9.642;2023-02-18T18:35:51;8.40;;;4.25;;
78648;SDS011;67962;47.310;9.642;2023-02-18T18:38:19;8.77;;;4.20;;
78648;SDS011;67962;47.310;9.642;2023-02-18T18:40:46;8.82;;;2.95;;
78648;SDS011;67962;47.310;9.642;2023-02-18T18:43:29;9.32;;;2.88;;
78648;SDS011;67962;47.310;9.642;2023-02-18T18:45:59;7.93;;;3.38;;
78648;SDS011;67962;47.310;9.642;2023-02-18T18:48:27;7.40;;;3.10;;
78648;SDS011;67962;47.310;9.642;2023-02-18T18:50:54;8.38;;;3.13;;
78648;SDS011;67962;47.310;9.642;2023-02-18T18:53:25;5.80;;;2.63;;
78648;SDS011;67962;47.310;9.642;2023-02-18T18:55:55;10.75;;;5.43;;
78648;SDS011;67962;47.310;9.642;2023-02-18T18:58:23;8.93;;;4.65;;
78648;SDS011;67962;47.310;9.642;2023-02-18T19:00:51;8.70;;;4.68;;
78648;SDS011;67962;47.310;9.642;2023-02-18T19:03:19;7.28;;;4.40;;
78648;SDS011;67962;47.310;9.642;2023-02-18T19:05:47;8.18;;;4.65;;
78648;SDS011;67962;47.310;9.642;2023-02-18T19:08:14;10.27;;;5.78;;
78648;SDS011;67962;47.310;9.642;2023-02-18T19:10:45;12.80;;;4.85;;
78648;SDS011;67962;47.310;9.642;2023-02-18T19:13:15;12.68;;;5.00;;
78648;SDS011;67962;47.310;9.642;2023-02-18T19:15:52;9.02;;;5.88;;
78648;SDS011;67962;47.310;9.642;2023-02-18T19:18:45;10.23;;;5.57;;
78648;SDS011;67962;47.310;9.642;2023-02-18T19:21:11;11.82;;;7.03;;
78648;SDS011;67962;47.310;9.642;2023-02-18T19:23:38;10.45;;;6.57;;
78648;SDS011;67962;47.310;9.642;2023-02-18T19:26:04;15.60;;;6.88;;
78648;SDS011;67962;47.310;9.642;2023-02-18T19:28:31;12.25;;;7.20;;
78648;SDS011;67962;47.310;9.642;2023-02-18T19:30:58;12.55;;;7.20;;
78648;SDS011;67962;47.310;9.642;2023-02-18T19:33:24;9.95;;;4.85;;
78648;SDS011;67962;47.310;9.642;2023-02-18T19:35:51;10.43;;;6.05;;
78648;SDS011;67962;47.310;9.642;2023-02-18T19:38:17;12.50;;;5.13;;
78648;SDS011;67962;47.310;9.642;2023-02-18T19:40:45;11.82;;;5.10;;
78648;SDS011;67962;47.310;9.642;2023-02-18T19:43:12;11.40;;;5.00;;
78648;SDS011;67962;47.310;9.642;2023-02-18T19:45:42;9.18;;;4.82;;
78648;SDS011;67962;47.310;9.642;2023-02-18T19:48:10;7.28;;;4.07;;
78648;SDS011;67962;47.310;9.642;2023-02-18T19:50:38;12.15;;;5.10;;
78648;SDS011;67962;47.310;9.642;2023-02-18T19:53:06;8.68;;;5.35;;
78648;SDS011;67962;47.310;9.642;2023-02-18T19:55:32;11.65;;;6.25;;
78648;SDS011;67962;47.310;9.642;2023-02-18T19:57:57;8.20;;;5.25;;
78648;SDS011;67962;47.310;9.642;2023-02-18T20:00:24;6.15;;;4.28;;
78648;SDS011;67962;47.310;9.642;2023-02-18T20:02:50;7.80;;;4.30;;
78648;SDS011;67962;47.310;9.642;2023-02-18T20:05:16;5.18;;;3.08;;
78648;SDS011;67962;47.310;9.642;2023-02-18T20:07:43;8.45;;;3.55;;
78648;SDS011;67962;47.310;9.642;2023-02-18T20:10:14;5.65;;;3.60;;
78648;SDS011;67962;47.310;9.642;2023-02-18T20:12:41;5.13;;;3.38;;
78648;SDS011;67962;47.310;9.642;2023-02-18T20:15:08;7.05;;;3.67;;
78648;SDS011;67962;47.310;9.642;2023-02-18T20:17:34;6.72;;;3.50;;
78648;SDS011;67962;47.310;9.642;2023-02-18T20:20:03;5.30;;;3.20;;
78648;SDS011;67962;47.310;9.642;2023-02-18T20:22:29;7.97;;;3.50;;
78648;SDS011;67962;47.310;9.642;2023-02-18T20:24:55;7.55;;;3.42;;
78648;SDS011;67962;47.310;9.642;2023-02-18T20:27:21;6.07;;;3.58;;
78648;SDS011;67962;47.310;9.642;2023-02-18T20:29:47;9.35;;;3.22;;
78648;SDS011;67962;47.310;9.642;2023-02-18T20:32:16;12.43;;;3.10;;
78648;SDS011;67962;47.310;9.642;2023-02-18T20:34:44;4.38;;;2.75;;
78648;SDS011;67962;47.310;9.642;2023-02-18T20:37:10;7.85;;;3.03;;
78648;SDS011;67962;47.310;9.642;2023-02-18T20:39:36;8.05;;;3.08;;
78648;SDS011;67962;47.310;9.642;2023-02-18T20:42:02;7.00;;;3.45;;
78648;SDS011;67962;47.310;9.642;2023-02-18T20:44:30;5.60;;;3.15;;
78648;SDS011;67962;47.310;9.642;2023-02-18T20:46:56;5.70;;;3.30;;
78648;SDS011;67962;47.310;9.642;2023-02-18T20:49:22;4.55;;;3.28;;
78648;SDS011;67962;47.310;9.642;2023-02-18T20:51:48;19.08;;;5.32;;
78648;SDS011;67962;47.310;9.642;2023-02-18T20:54:18;16.08;;;5.65;;
78648;SDS011;67962;47.310;9.642;2023-02-18T20:56:45;13.60;;;6.30;;
78648;SDS011;67962;47.310;9.642;2023-02-18T20:59:14;12.10;;;5.75;;
78648;SDS011;67962;47.310;9.642;2023-02-18T21:01:41;11.20;;;6.70;;
78648;SDS011;67962;47.310;9.642;2023-02-18T21:04:09;29.63;;;15.68;;
78648;SDS011;67962;47.310;9.642;2023-02-18T21:06:36;21.50;;;8.25;;
78648;SDS011;67962;47.310;9.642;2023-02-18T21:09:03;12.45;;;7.40;;
78648;SDS011;67962;47.310;9.642;2023-02-18T21:11:29;11.80;;;6.43;;
78648;SDS011;67962;47.310;9.642;2023-02-18T21:13:56;16.35;;;7.85;;
78648;SDS011;67962;47.310;9.642;2023-02-18T21:16:22;11.80;;;7.07;;
78648;SDS011;67962;47.310;9.642;2023-02-18T21:18:51;10.23;;;6.60;;
78648;SDS011;67962;47.310;9.642;2023-02-18T21:21:18;10.77;;;6.18;;
78648;SDS011;67962;47.310;9.642;2023-02-18T21:23:46;11.27;;;6.75;;
78648;SDS011;67962;47.310;9.642;2023-02-18T21:26:13;13.45;;;5.63;;
78648;SDS011;67962;47.310;9.642;2023-02-18T21:28:45;10.02;;;5.35;;
78648;SDS011;67962;47.310;9.642;2023-02-18T21:31:16;9.25;;;5.35;;
78648;SDS011;67962;47.310;9.642;2023-02-18T21:33:46;7.82;;;4.35;;
78648;SDS011;67962;47.310;9.642;2023-02-18T21:36:12;6.78;;;3.60;;
78648;SDS011;67962;47.310;9.642;2023-02-18T21:38:40;7.68;;;4.20;;
78648;SDS011;67962;47.310;9.642;2023-02-18T21:41:09;7.20;;;4.75;;
78648;SDS011;67962;47.310;9.642;2023-02-18T21:43:36;10.10;;;5.25;;
78648;SDS011;67962;47.310;9.642;2023-02-18T21:48:32;11.18;;;5.72;;
78648;SDS011;67962;47.310;9.642;2023-02-18T21:51:16;11.82;;;6.00;;
78648;SDS011;67962;47.310;9.642;2023-02-18T21:54:02;10.85;;;5.75;;
78648;SDS011;67962;47.310;9.642;2023-02-18T21:56:28;12.63;;;5.90;;
78648;SDS011;67962;47.310;9.642;2023-02-18T21:58:55;13.02;;;6.30;;
78648;SDS011;67962;47.310;9.642;2023-02-18T22:01:20;11.27;;;6.20;;
78648;SDS011;67962;47.310;9.642;2023-02-18T22:03:46;9.40;;;5.63;;
78648;SDS011;67962;47.310;9.642;2023-02-18T22:06:12;12.48;;;5.72;;
78648;SDS011;67962;47.310;9.642;2023-02-18T22:08:38;7.68;;;5.47;;
78648;SDS011;67962;47.310;9.642;2023-02-18T22:11:04;8.38;;;5.70;;
78648;SDS011;67962;47.310;9.642;2023-02-18T22:13:30;7.47;;;4.97;;
78648;SDS011;67962;47.310;9.642;2023-02-18T22:15:56;9.40;;;5.05;;
78648;SDS011;67962;47.310;9.642;2023-02-18T22:18:22;7.93;;;5.15;;
78648;SDS011;67962;47.310;9.642;2023-02-18T22:20:48;8.23;;;4.90;;
78648;SDS011;67962;47.310;9.642;2023-02-18T22:23:14;11.07;;;5.30;;
78648;SDS011;67962;47.310;9.642;2023-02-18T22:25:42;8.02;;;4.68;;
78648;SDS011;67962;47.310;9.642;2023-02-18T22:28:07;8.68;;;4.85;;
78648;SDS011;67962;47.310;9.642;2023-02-18T22:30:33;12.48;;;4.70;;
78648;SDS011;67962;47.310;9.642;2023-02-18T22:32:59;5.72;;;4.35;;
78648;SDS011;67962;47.310;9.642;2023-02-18T22:35:24;7.78;;;4.25;;
78648;SDS011;67962;47.310;9.642;2023-02-18T22:37:50;6.63;;;4.05;;
78648;SDS011;67962;47.310;9.642;2023-02-18T22:40:16;9.48;;;4.45;;
78648;SDS011;67962;47.310;9.642;2023-02-18T22:42:42;7.85;;;4.93;;
78648;SDS011;67962;47.310;9.642;2023-02-18T22:45:07;7.45;;;4.20;;
78648;SDS011;67962;47.310;9.642;2023-02-18T22:47:33;6.50;;;4.22;;
78648;SDS011;67962;47.310;9.642;2023-02-18T22:49:59;6.90;;;4.78;;
78648;SDS011;67962;47.310;9.642;2023-02-18T22:52:25;7.85;;;4.65;;
78648;SDS011;67962;47.310;9.642;2023-02-18T22:54:50;8.23;;;4.97;;
78648;SDS011;67962;47.310;9.642;2023-02-18T22:57:16;8.98;;;5.55;;
78648;SDS011;67962;47.310;9.642;2023-02-18T22:59:42;8.73;;;4.70;;
78648;SDS011;67962;47.310;9.642;2023-02-18T23:02:07;6.47;;;4.63;;
78648;SDS011;67962;47.310;9.642;2023-02-18T23:04:33;6.85;;;4.03;;
78648;SDS011;67962;47.310;9.642;2023-02-18T23:06:59;6.88;;;4.20;;
78648;SDS011;67962;47.310;9.642;2023-02-18T23:09:25;6.95;;;4.55;;
78648;SDS011;67962;47.310;9.642;2023-02-18T23:11:51;6.65;;;3.90;;
78648;SDS011;67962;47.310;9.642;2023-02-18T23:14:19;9.15;;;3.60;;
78648;SDS011;67962;47.310;9.642;2023-02-18T23:16:49;6.43;;;3.50;;
78648;SDS011;67962;47.310;9.642;2023-02-18T23:19:36;6.97;;;3.67;;
78648;SDS011;67962;47.310;9.642;2023-02-18T23:22:03;12.48;;;3.50;;
78648;SDS011;67962;47.310;9.642;2023-02-18T23:24:36;6.15;;;3.72;;
78648;SDS011;67962;47.310;9.642;2023-02-18T23:27:04;5.88;;;3.50;;
78648;SDS011;67962;47.310;9.642;2023-02-18T23:29:30;6.40;;;3.45;;
78648;SDS011;67962;47.310;9.642;2023-02-18T23:31:56;5.28;;;3.58;;
78648;SDS011;67962;47.310;9.642;2023-02-18T23:34:21;10.30;;;3.80;;
78648;SDS011;67962;47.310;9.642;2023-02-18T23:36:47;5.75;;;3.45;;
78648;SDS011;67962;47.310;9.642;2023-02-18T23:39:17;5.70;;;3.67;;
78648;SDS011;67962;47.310;9.642;2023-02-18T23:41:44;8.23;;;4.22;;
78648;SDS011;67962;47.310;9.642;2023-02-18T23:44:11;8.93;;;4.35;;
78648;SDS011;67962;47.310;9.642;2023-02-18T23:46:38;7.63;;;3.42;;
78648;SDS011;67962;47.310;9.642;2023-02-18T23:49:04;5.07;;;3.20;;
78648;SDS011;67962;47.310;9.642;2023-02-18T23:51:31;7.82;;;3.42;;
78648;SDS011;67962;47.310;9.642;2023-02-18T23:53:56;5.75;;;4.07;;
78648;SDS011;67962;47.310;9.642;2023-02-18T23:56:25;5.95;;;3.83;;
78648;SDS011;67962;47.310;9.642;2023-02-18T23:58:56;7.38;;;3.90;;
